Time;durP1;ratioP1;P1;durP2;ratioP2;P2;SDS_P1;SDS_P2;PMS_P1;PMS_P2;Temp;Humidity;BMP_temperature;BMP_pressure;BME280_temperature;BME280_humidity;BME280_pressure;Samples;Min_cycle;Max_cycle;Signal;HPM_P1;HPM_P2
2023/09/10 00:00:11;;;;;;;21.02;13.02;;;19.80;99.90;;;;;;5099269;28;20226;-73
2023/09/10 00:03:02;;;;;;;21.65;14.23;;;19.80;99.90;;;;;;5096095;28;20246;-72
2023/09/10 00:05:51;;;;;;;17.30;13.73;;;19.70;99.90;;;;;;5098171;28;20235;-73
2023/09/10 00:08:40;;;;;;;21.55;14.13;;;19.70;99.90;;;;;;5082716;28;20227;-73
2023/09/10 00:11:29;;;;;;;15.93;13.40;;;19.70;99.90;;;;;;5079013;28;20377;-73
2023/09/10 00:14:18;;;;;;;18.67;14.00;;;19.60;99.90;;;;;;5080784;28;20227;-73
2023/09/10 00:17:07;;;;;;;23.65;14.52;;;19.70;99.90;;;;;;5083250;28;20974;-74
2023/09/10 00:19:59;;;;;;;19.02;13.77;;;19.60;99.90;;;;;;5083530;28;20312;-71
2023/09/10 00:22:48;;;;;;;20.08;14.38;;;19.60;99.90;;;;;;5080856;28;20222;-73
2023/09/10 00:25:37;;;;;;;20.50;14.73;;;19.60;99.90;;;;;;5092983;28;20238;-74
2023/09/10 00:28:26;;;;;;;18.08;14.60;;;19.50;99.90;;;;;;5092373;28;20227;-73
2023/09/10 00:31:15;;;;;;;21.25;14.55;;;19.40;99.90;;;;;;5080712;28;20345;-73
2023/09/10 00:34:04;;;;;;;21.85;15.57;;;19.40;99.90;;;;;;5076734;28;20222;-71
2023/09/10 00:36:55;;;;;;;21.75;15.75;;;19.30;99.90;;;;;;5090792;28;20230;-73
2023/09/10 00:39:44;;;;;;;20.30;15.95;;;19.20;99.90;;;;;;5075112;28;20223;-73
2023/09/10 00:42:33;;;;;;;19.10;15.30;;;19.10;99.90;;;;;;5085175;28;20222;-74
2023/09/10 00:45:22;;;;;;;18.10;15.13;;;19.30;99.90;;;;;;5097004;28;20231;-73
2023/09/10 00:48:11;;;;;;;21.55;15.93;;;19.20;99.90;;;;;;5090169;28;20239;-74
2023/09/10 00:51:00;;;;;;;18.65;15.55;;;19.10;99.90;;;;;;5073134;28;20224;-74
2023/09/10 00:53:51;;;;;;;23.48;15.70;;;19.10;99.90;;;;;;5096102;28;20325;-73
2023/09/10 00:56:40;;;;;;;25.75;15.70;;;19.00;99.90;;;;;;5100599;28;20230;-74
2023/09/10 00:59:30;;;;;;;18.58;16.15;;;19.10;99.90;;;;;;5073119;28;20233;-73
2023/09/10 01:02:20;;;;;;;22.50;16.90;;;19.10;99.90;;;;;;5071774;28;20313;-74
2023/09/10 01:05:09;;;;;;;21.63;16.77;;;19.10;99.90;;;;;;5096261;28;20341;-73
2023/09/10 01:07:59;;;;;;;22.05;16.65;;;19.00;99.90;;;;;;5100153;28;20234;-73
2023/09/10 01:10:54;;;;;;;18.52;16.50;;;18.90;99.90;;;;;;5072502;28;20257;-73
2023/09/10 01:14:02;;;;;;;22.88;16.42;;;18.90;99.90;;;;;;5081143;28;20284;-73
2023/09/10 01:17:00;;;;;;;23.80;16.30;;;18.90;99.90;;;;;;5086572;28;20290;-73
2023/09/10 01:20:14;;;;;;;26.77;17.70;;;18.90;99.90;;;;;;5093527;28;20234;-72
2023/09/10 01:23:04;;;;;;;22.15;16.98;;;18.90;99.90;;;;;;5093413;28;20222;-73
2023/09/10 01:25:56;;;;;;;23.23;17.40;;;18.80;99.90;;;;;;5085513;28;20302;-73
2023/09/10 01:28:46;;;;;;;22.70;16.92;;;18.80;99.90;;;;;;5092182;28;20230;-73
2023/09/10 01:31:41;;;;;;;25.55;19.02;;;18.80;99.90;;;;;;5086999;28;20250;-73
2023/09/10 01:34:38;;;;;;;32.03;18.50;;;18.80;99.90;;;;;;5059666;28;20228;-74
2023/09/10 01:37:34;;;;;;;23.73;18.30;;;18.70;99.90;;;;;;5069754;28;20224;-73
2023/09/10 01:40:30;;;;;;;26.92;19.23;;;18.80;99.90;;;;;;5066468;28;20306;-73
2023/09/10 01:43:21;;;;;;;23.30;18.08;;;18.60;99.90;;;;;;5070477;28;20377;-73
2023/09/10 01:46:11;;;;;;;26.58;20.13;;;18.60;99.90;;;;;;5071584;28;20230;-73
2023/09/10 01:49:01;;;;;;;27.00;19.45;;;18.60;99.90;;;;;;5076854;28;20250;-72
2023/09/10 01:51:50;;;;;;;26.42;19.00;;;18.60;99.90;;;;;;5079363;28;20225;-72
2023/09/10 01:54:42;;;;;;;27.15;19.25;;;18.50;99.90;;;;;;5096847;28;20223;-72
2023/09/10 01:57:31;;;;;;;27.27;20.02;;;18.60;99.90;;;;;;5097199;28;20924;-72
2023/09/10 02:00:22;;;;;;;31.17;18.70;;;18.60;99.90;;;;;;5104004;28;20219;-74
2023/09/10 02:03:11;;;;;;;28.55;19.30;;;18.60;99.90;;;;;;5084619;28;20599;-73
2023/09/10 02:06:03;;;;;;;30.00;20.23;;;18.70;99.90;;;;;;5103368;28;20223;-72
2023/09/10 02:08:53;;;;;;;25.13;20.42;;;18.60;99.90;;;;;;5093090;28;20711;-72
2023/09/10 02:11:42;;;;;;;24.15;19.13;;;18.50;99.90;;;;;;5098614;28;20309;-73
2023/09/10 02:14:31;;;;;;;28.70;19.65;;;18.40;99.90;;;;;;5083597;28;20222;-73
2023/09/10 02:17:21;;;;;;;26.50;19.60;;;18.30;99.90;;;;;;5098678;28;20222;-73
2023/09/10 02:20:11;;;;;;;29.70;20.23;;;18.40;99.90;;;;;;5082238;28;20214;-72
2023/09/10 02:23:00;;;;;;;24.27;19.80;;;18.20;99.90;;;;;;5096691;28;20230;-73
2023/09/10 02:25:50;;;;;;;31.65;21.08;;;18.30;99.90;;;;;;5091559;28;20257;-73
2023/09/10 02:28:39;;;;;;;22.75;18.65;;;18.30;99.90;;;;;;5073614;28;20238;-73
2023/09/10 02:31:29;;;;;;;25.33;19.52;;;18.40;99.90;;;;;;5093608;28;20286;-73
2023/09/10 02:34:19;;;;;;;31.90;20.23;;;18.30;99.90;;;;;;5097506;28;20233;-73
2023/09/10 02:37:08;;;;;;;24.88;19.58;;;18.30;99.90;;;;;;5085749;28;20703;-73
2023/09/10 02:39:56;;;;;;;23.90;19.20;;;18.30;99.90;;;;;;5093110;28;20392;-74
2023/09/10 02:42:46;;;;;;;24.08;19.40;;;18.30;99.90;;;;;;5094575;28;20610;-73
2023/09/10 02:45:34;;;;;;;25.67;19.73;;;18.40;99.90;;;;;;5100048;28;20227;-73
2023/09/10 02:48:23;;;;;;;26.17;19.58;;;18.20;99.90;;;;;;5084476;28;20315;-73
2023/09/10 02:51:15;;;;;;;29.17;19.98;;;18.30;99.90;;;;;;5086903;28;20333;-73
2023/09/10 02:54:04;;;;;;;24.58;19.17;;;18.30;99.90;;;;;;5098076;28;20223;-73
2023/09/10 02:56:52;;;;;;;26.20;19.30;;;18.30;99.90;;;;;;5095248;28;20226;-73
2023/09/10 02:59:41;;;;;;;28.52;19.33;;;18.30;99.90;;;;;;5078322;28;20816;-73
2023/09/10 03:02:30;;;;;;;25.77;18.48;;;18.30;99.90;;;;;;5084563;28;20309;-72
2023/09/10 03:05:19;;;;;;;25.25;20.08;;;18.30;99.90;;;;;;5077826;28;20246;-72
2023/09/10 03:08:10;;;;;;;25.20;19.52;;;18.40;99.90;;;;;;5103251;28;20219;-73
2023/09/10 03:11:03;;;;;;;27.25;19.85;;;18.30;99.90;;;;;;5089633;28;20749;-72
2023/09/10 03:13:52;;;;;;;27.85;19.67;;;18.20;99.90;;;;;;5087234;28;20215;-74
2023/09/10 03:16:42;;;;;;;28.50;20.77;;;18.20;99.90;;;;;;5082355;28;20632;-72
2023/09/10 03:19:36;;;;;;;24.75;19.70;;;18.20;99.90;;;;;;5079353;28;20234;-73
2023/09/10 03:22:26;;;;;;;26.67;18.77;;;18.20;99.90;;;;;;5089352;28;20267;-73
2023/09/10 03:25:17;;;;;;;23.77;19.20;;;18.20;99.90;;;;;;5103636;28;20611;-69
2023/09/10 03:28:07;;;;;;;25.38;19.17;;;18.20;99.90;;;;;;5105230;28;20952;-70
2023/09/10 03:30:59;;;;;;;25.50;19.35;;;18.20;99.90;;;;;;5082872;28;20310;-73
2023/09/10 03:33:49;;;;;;;25.85;20.10;;;18.30;99.90;;;;;;5059222;28;20246;-74
2023/09/10 03:36:38;;;;;;;24.73;19.27;;;18.10;99.90;;;;;;5086226;28;20216;-74
2023/09/10 03:39:28;;;;;;;27.85;19.42;;;18.10;99.90;;;;;;5085935;28;20678;-74
2023/09/10 03:42:19;;;;;;;24.15;19.60;;;18.00;99.90;;;;;;5069968;28;20255;-74
2023/09/10 03:45:08;;;;;;;25.70;19.45;;;18.00;99.90;;;;;;5074280;28;20282;-72
2023/09/10 03:47:57;;;;;;;26.35;19.17;;;18.10;99.90;;;;;;5087167;28;20246;-73
2023/09/10 03:50:46;;;;;;;26.67;19.80;;;18.00;99.90;;;;;;5092839;28;21081;-73
2023/09/10 03:53:35;;;;;;;23.52;19.48;;;18.00;99.90;;;;;;5100190;28;20236;-72
2023/09/10 03:56:24;;;;;;;27.77;19.35;;;18.00;99.90;;;;;;5100937;28;20227;-73
2023/09/10 03:59:16;;;;;;;26.73;19.63;;;18.00;99.90;;;;;;5082480;28;20307;-73
2023/09/10 04:02:05;;;;;;;27.38;19.30;;;18.00;99.90;;;;;;5082398;28;20222;-73
2023/09/10 04:04:54;;;;;;;25.23;19.63;;;17.90;99.90;;;;;;5076339;28;20318;-73
2023/09/10 04:07:43;;;;;;;26.00;19.42;;;17.80;99.90;;;;;;5088204;28;20231;-73
2023/09/10 04:10:32;;;;;;;26.98;20.45;;;17.80;99.90;;;;;;5085489;28;20215;-73
2023/09/10 04:13:21;;;;;;;27.02;20.40;;;17.70;99.90;;;;;;5093486;28;20973;-72
2023/09/10 04:16:12;;;;;;;24.10;19.10;;;17.70;99.90;;;;;;5090039;28;20220;-71
2023/09/10 04:19:01;;;;;;;23.23;19.33;;;17.70;99.90;;;;;;5054565;28;20320;-73
2023/09/10 04:21:49;;;;;;;24.52;19.48;;;17.80;99.90;;;;;;5078670;28;20258;-73
2023/09/10 04:24:38;;;;;;;27.33;19.65;;;17.70;99.90;;;;;;5080523;28;20237;-72
2023/09/10 04:27:28;;;;;;;25.23;19.88;;;17.60;99.90;;;;;;5095400;28;20357;-72
2023/09/10 04:30:17;;;;;;;23.45;20.08;;;17.80;99.90;;;;;;5097289;28;20225;-73
2023/09/10 04:33:07;;;;;;;24.00;18.75;;;17.70;99.90;;;;;;5098349;28;20260;-73
2023/09/10 04:35:57;;;;;;;26.40;19.67;;;17.80;99.90;;;;;;5072404;28;20233;-73
2023/09/10 04:38:47;;;;;;;26.85;20.35;;;17.70;99.90;;;;;;5070428;28;20312;-73
2023/09/10 04:41:37;;;;;;;24.77;19.23;;;17.80;99.90;;;;;;5092439;28;20738;-73
2023/09/10 04:44:26;;;;;;;25.42;20.30;;;17.80;99.90;;;;;;5091200;28;20293;-71
2023/09/10 04:47:15;;;;;;;24.60;19.63;;;18.00;99.90;;;;;;5072881;28;20223;-73
2023/09/10 04:50:08;;;;;;;27.45;18.75;;;17.80;99.90;;;;;;5063740;28;21105;-73
2023/09/10 04:53:01;;;;;;;22.90;19.27;;;17.80;99.90;;;;;;5082810;28;20295;-73
2023/09/10 04:55:54;;;;;;;27.42;18.83;;;17.90;99.90;;;;;;5086947;28;20235;-73
2023/09/10 04:58:45;;;;;;;22.08;19.25;;;17.80;99.90;;;;;;5073358;28;20229;-71
2023/09/10 05:01:34;;;;;;;25.25;18.40;;;18.00;99.90;;;;;;5091896;28;20524;-72
2023/09/10 05:04:23;;;;;;;21.13;18.75;;;18.00;99.90;;;;;;5079360;28;20337;-73
2023/09/10 05:07:15;;;;;;;24.50;19.48;;;17.90;99.90;;;;;;5085860;28;20214;-73
2023/09/10 05:10:05;;;;;;;25.55;19.38;;;17.90;99.90;;;;;;5071473;28;20246;-73
2023/09/10 05:12:54;;;;;;;25.83;19.50;;;18.00;99.90;;;;;;5100464;28;20229;-72
2023/09/10 05:15:45;;;;;;;22.92;18.63;;;18.00;99.90;;;;;;5068275;28;20215;-74
2023/09/10 05:18:34;;;;;;;23.02;18.42;;;18.10;99.90;;;;;;5075018;28;20790;-73
2023/09/10 05:21:23;;;;;;;22.02;18.92;;;18.30;99.90;;;;;;5069082;28;20262;-72
2023/09/10 05:24:13;;;;;;;23.83;19.23;;;18.20;99.90;;;;;;5078146;28;20228;-73
2023/09/10 05:27:04;;;;;;;22.63;19.27;;;18.30;99.90;;;;;;5063289;28;20259;-73
2023/09/10 05:29:53;;;;;;;23.33;19.23;;;18.20;99.90;;;;;;5056823;28;20334;-74
2023/09/10 05:32:42;;;;;;;23.40;18.85;;;18.40;99.90;;;;;;5066480;28;20229;-73
2023/09/10 05:35:31;;;;;;;27.30;18.63;;;18.40;99.90;;;;;;5081293;28;20755;-73
2023/09/10 05:38:20;;;;;;;28.25;18.35;;;18.50;99.90;;;;;;5065292;28;20703;-73
2023/09/10 05:41:10;;;;;;;24.33;18.30;;;18.40;99.90;;;;;;5069979;28;20276;-73
2023/09/10 05:43:59;;;;;;;21.33;17.95;;;18.60;99.90;;;;;;5069854;28;20223;-73
2023/09/10 05:46:51;;;;;;;23.02;17.70;;;18.70;99.90;;;;;;5070517;28;20452;-73
2023/09/10 05:49:40;;;;;;;25.50;18.25;;;18.70;99.90;;;;;;5080908;28;20269;-72
2023/09/10 05:52:29;;;;;;;21.95;17.85;;;18.80;99.90;;;;;;5083014;28;20238;-72
2023/09/10 05:55:18;;;;;;;23.92;18.08;;;18.90;99.90;;;;;;5100365;28;20275;-73
2023/09/10 05:58:09;;;;;;;25.58;18.40;;;19.00;99.90;;;;;;5074679;28;20736;-72
2023/09/10 06:00:58;;;;;;;22.88;17.52;;;19.10;99.90;;;;;;5078153;28;20326;-72
2023/09/10 06:03:47;;;;;;;21.00;17.23;;;19.10;99.90;;;;;;5098248;28;20246;-73
2023/09/10 06:06:36;;;;;;;23.25;18.00;;;19.20;99.90;;;;;;5092136;28;20226;-73
2023/09/10 06:09:25;;;;;;;21.08;17.60;;;19.20;99.90;;;;;;5088218;28;20902;-73
2023/09/10 06:12:14;;;;;;;23.13;17.25;;;19.30;99.90;;;;;;5095240;28;20215;-73
2023/09/10 06:15:06;;;;;;;23.48;17.00;;;19.60;99.90;;;;;;5094678;28;20737;-72
2023/09/10 06:17:56;;;;;;;23.20;17.80;;;19.90;99.90;;;;;;5089977;28;20223;-72
2023/09/10 06:20:47;;;;;;;23.90;16.23;;;19.90;99.90;;;;;;5090687;28;20223;-73
2023/09/10 06:23:35;;;;;;;20.42;16.73;;;20.00;99.90;;;;;;5087172;28;20307;-73
2023/09/10 06:26:24;;;;;;;20.85;16.20;;;20.30;99.90;;;;;;5084294;28;20215;-73
2023/09/10 06:29:14;;;;;;;26.23;16.75;;;20.20;99.90;;;;;;5085696;28;20230;-72
2023/09/10 06:32:05;;;;;;;20.48;16.33;;;20.10;99.90;;;;;;5090016;28;20231;-75
2023/09/10 06:34:55;;;;;;;23.23;16.75;;;20.20;99.90;;;;;;5081456;28;20226;-75
2023/09/10 06:37:47;;;;;;;23.63;16.83;;;20.20;99.90;;;;;;5076272;28;20958;-72
2023/09/10 06:40:36;;;;;;;22.83;15.98;;;20.20;99.90;;;;;;5073767;28;20220;-72
2023/09/10 06:43:26;;;;;;;21.40;16.52;;;20.30;99.90;;;;;;5080221;28;20372;-73
2023/09/10 06:46:28;;;;;;;22.75;15.73;;;20.30;99.90;;;;;;5085791;28;20226;-74
2023/09/10 06:49:18;;;;;;;22.38;15.82;;;20.40;99.90;;;;;;5095176;28;20322;-73
2023/09/10 06:52:08;;;;;;;20.33;15.85;;;20.60;99.90;;;;;;5096758;28;20348;-72
2023/09/10 06:54:57;;;;;;;20.23;16.10;;;20.60;99.90;;;;;;5098417;28;20302;-72
2023/09/10 06:57:47;;;;;;;24.88;16.73;;;20.60;99.90;;;;;;5089325;28;20594;-73
2023/09/10 07:00:36;;;;;;;19.42;15.82;;;20.80;99.90;;;;;;5094991;28;20231;-72
2023/09/10 07:03:25;;;;;;;21.20;16.05;;;20.80;99.90;;;;;;5098929;28;20233;-73
2023/09/10 07:06:15;;;;;;;21.52;16.02;;;21.00;99.90;;;;;;5095932;28;20247;-71
2023/09/10 07:09:05;;;;;;;21.30;16.45;;;21.00;99.90;;;;;;5079224;28;20250;-73
2023/09/10 07:11:54;;;;;;;23.05;16.80;;;21.20;99.90;;;;;;5081683;28;20233;-73
2023/09/10 07:14:49;;;;;;;21.10;16.45;;;21.30;99.90;;;;;;5090033;28;20337;-74
2023/09/10 07:17:38;;;;;;;20.80;16.15;;;21.50;99.90;;;;;;5073906;28;20211;-72
2023/09/10 07:20:28;;;;;;;19.88;16.48;;;21.70;99.90;;;;;;5091647;28;20223;-73
2023/09/10 07:23:18;;;;;;;19.50;16.00;;;21.90;99.90;;;;;;5082272;28;20936;-74
2023/09/10 07:26:07;;;;;;;24.08;15.75;;;22.00;99.90;;;;;;5100045;28;20226;-71
2023/09/10 07:28:55;;;;;;;24.63;15.55;;;22.30;99.90;;;;;;5098825;28;20230;-73
2023/09/10 07:31:45;;;;;;;21.33;15.45;;;22.50;99.90;;;;;;5085959;28;20350;-72
2023/09/10 07:34:34;;;;;;;20.98;15.50;;;22.50;99.90;;;;;;5069722;28;20722;-71
2023/09/10 07:37:23;;;;;;;17.85;15.15;;;22.70;99.90;;;;;;5079286;28;20238;-73
2023/09/10 07:40:14;;;;;;;22.45;15.57;;;22.90;99.90;;;;;;5082326;28;20219;-73
2023/09/10 07:43:03;;;;;;;19.75;15.43;;;22.70;99.90;;;;;;5099314;28;20612;-70
2023/09/10 07:45:52;;;;;;;19.08;15.35;;;22.90;99.90;;;;;;5077106;28;20223;-72
2023/09/10 07:48:41;;;;;;;22.67;14.70;;;23.00;99.90;;;;;;5094854;28;20227;-73
2023/09/10 07:51:30;;;;;;;18.20;14.25;;;23.40;99.90;;;;;;5100656;28;20282;-75
2023/09/10 07:54:19;;;;;;;20.27;14.75;;;23.60;99.90;;;;;;5099955;28;20223;-74
2023/09/10 07:57:10;;;;;;;21.05;14.80;;;23.70;99.90;;;;;;5099139;28;20593;-74
2023/09/10 08:00:00;;;;;;;18.05;14.57;;;24.00;99.90;;;;;;5093569;28;20235;-73
2023/09/10 08:03:03;;;;;;;23.80;14.57;;;24.00;99.90;;;;;;5101022;28;20223;-75
2023/09/10 08:05:52;;;;;;;17.08;13.63;;;24.50;99.90;;;;;;5075937;28;20749;-74
2023/09/10 08:08:41;;;;;;;16.52;13.68;;;24.50;99.90;;;;;;5082885;28;20225;-73
2023/09/10 08:11:30;;;;;;;18.45;13.57;;;24.60;99.90;;;;;;5086876;28;20279;-73
2023/09/10 08:14:20;;;;;;;18.95;13.55;;;24.90;99.90;;;;;;5084267;28;20638;-75
2023/09/10 08:17:09;;;;;;;16.00;13.75;;;25.20;99.90;;;;;;5073913;28;20372;-74
2023/09/10 08:19:58;;;;;;;15.57;13.30;;;25.30;99.90;;;;;;5090659;28;20862;-75
2023/09/10 08:22:47;;;;;;;19.75;13.20;;;25.60;99.90;;;;;;5086041;28;20230;-73
2023/09/10 08:25:36;;;;;;;18.45;13.40;;;26.10;99.90;;;;;;5076752;28;20227;-73
2023/09/10 08:28:25;;;;;;;19.25;14.70;;;26.50;99.90;;;;;;5081323;28;20231;-74
2023/09/10 08:31:15;;;;;;;16.80;14.23;;;26.20;99.90;;;;;;5091735;28;21014;-74
2023/09/10 08:34:05;;;;;;;18.20;13.02;;;26.60;99.90;;;;;;5089797;28;20227;-74
2023/09/10 08:36:53;;;;;;;21.05;14.00;;;26.90;99.90;;;;;;5090361;28;20233;-74
2023/09/10 08:39:42;;;;;;;20.80;13.63;;;27.30;99.90;;;;;;5095498;28;20222;-73
2023/09/10 08:42:42;;;;;;;16.92;11.88;;;27.40;99.90;;;;;;5072350;28;20211;-74
2023/09/10 08:45:32;;;;;;;16.83;12.13;;;27.80;99.90;;;;;;5065533;28;20230;-74
2023/09/10 08:48:24;;;;;;;13.77;11.73;;;28.10;99.90;;;;;;5097786;28;20321;-74
2023/09/10 08:51:14;;;;;;;18.23;11.93;;;28.50;99.90;;;;;;5100173;28;20227;-74
2023/09/10 08:54:03;;;;;;;15.40;12.45;;;28.30;99.90;;;;;;5098919;28;20222;-74
2023/09/10 08:56:54;;;;;;;19.33;13.02;;;28.10;99.90;;;;;;5085356;28;20230;-74
2023/09/10 08:59:43;;;;;;;16.45;11.63;;;28.30;99.90;;;;;;5093816;28;20279;-75
2023/09/10 09:02:34;;;;;;;17.38;11.50;;;28.70;99.90;;;;;;5070731;28;20211;-74
2023/09/10 09:05:28;;;;;;;16.23;11.63;;;28.60;99.90;;;;;;5076329;28;20618;-74
2023/09/10 09:08:22;;;;;;;13.77;11.98;;;29.00;99.90;;;;;;5074711;28;20753;-74
2023/09/10 09:11:13;;;;;;;18.42;12.02;;;29.10;99.90;;;;;;5083429;28;20318;-74
2023/09/10 09:14:07;;;;;;;20.27;12.00;;;28.80;99.90;;;;;;5090071;28;20241;-74
2023/09/10 09:16:57;;;;;;;13.85;11.48;;;27.70;99.90;;;;;;5100349;28;20250;-74
2023/09/10 09:19:49;;;;;;;14.43;11.15;;;27.20;99.90;;;;;;5090380;28;20723;-74
2023/09/10 09:22:42;;;;;;;11.50;10.05;;;27.00;99.90;;;;;;5094868;28;20721;-73
2023/09/10 09:25:31;;;;;;;17.38;10.98;;;26.60;99.90;;;;;;5075544;28;20214;-73
2023/09/10 09:28:21;;;;;;;17.90;10.63;;;26.50;99.90;;;;;;5088484;28;20253;-73
2023/09/10 09:31:10;;;;;;;13.38;10.00;;;26.40;99.90;;;;;;5094366;28;20234;-72
2023/09/10 09:33:59;;;;;;;13.65;9.93;;;26.30;99.90;;;;;;5091885;28;20234;-73
2023/09/10 09:36:51;;;;;;;17.27;10.35;;;26.20;99.90;;;;;;5091683;28;20280;-73
2023/09/10 09:39:47;;;;;;;14.77;9.02;;;26.10;99.90;;;;;;5091619;28;20723;-73
2023/09/10 09:42:36;;;;;;;13.65;9.85;;;26.10;99.90;;;;;;5096261;28;20223;-73
2023/09/10 09:45:25;;;;;;;13.27;10.65;;;26.10;99.90;;;;;;5090156;28;20238;-73
2023/09/10 09:48:15;;;;;;;12.48;10.32;;;26.00;99.90;;;;;;5100620;28;20261;-73
2023/09/10 09:51:05;;;;;;;14.95;10.00;;;25.90;99.90;;;;;;5091010;28;20317;-73
2023/09/10 09:53:54;;;;;;;17.63;9.85;;;25.90;99.90;;;;;;5083306;28;20641;-73
2023/09/10 09:56:45;;;;;;;11.98;9.77;;;25.90;99.90;;;;;;5075715;28;20242;-73
2023/09/10 09:59:35;;;;;;;14.20;9.77;;;25.90;99.90;;;;;;5102417;28;20242;-71
2023/09/10 10:02:24;;;;;;;11.95;10.05;;;26.10;99.90;;;;;;5097734;28;20212;-73
2023/09/10 10:05:14;;;;;;;13.75;10.40;;;26.00;99.90;;;;;;5088122;28;20710;-73
2023/09/10 10:08:04;;;;;;;12.00;10.80;;;26.00;99.90;;;;;;5098059;28;20330;-73
2023/09/10 10:10:53;;;;;;;17.70;9.95;;;25.90;99.90;;;;;;5095764;28;20307;-72
2023/09/10 10:13:43;;;;;;;13.27;10.15;;;25.90;99.90;;;;;;5088377;28;25511;-73
2023/09/10 10:16:33;;;;;;;13.55;9.98;;;25.90;99.90;;;;;;5083267;28;20249;-73
2023/09/10 10:19:22;;;;;;;14.52;9.43;;;26.00;99.90;;;;;;5070084;28;20547;-73
2023/09/10 10:22:12;;;;;;;15.63;9.80;;;26.10;99.90;;;;;;5094179;28;20248;-73
2023/09/10 10:25:02;;;;;;;15.18;9.52;;;26.10;99.90;;;;;;5063454;28;20235;-73
2023/09/10 10:27:53;;;;;;;17.00;9.73;;;26.30;99.90;;;;;;5095776;28;20369;-72
2023/09/10 10:30:50;;;;;;;14.20;9.55;;;26.30;99.90;;;;;;5099416;28;20235;-74
2023/09/10 10:33:43;;;;;;;15.82;9.50;;;26.30;99.90;;;;;;5100634;28;20218;-72
2023/09/10 10:36:42;;;;;;;16.55;8.82;;;26.30;99.90;;;;;;5098466;28;20219;-74
2023/09/10 10:39:40;;;;;;;13.05;9.00;;;26.20;99.90;;;;;;5099184;28;20675;-75
2023/09/10 10:42:36;;;;;;;16.13;9.07;;;26.30;99.90;;;;;;5097818;28;20679;-74
2023/09/10 10:45:26;;;;;;;14.60;9.15;;;26.30;99.90;;;;;;5095206;28;20706;-73
2023/09/10 10:48:25;;;;;;;11.40;8.48;;;26.30;99.90;;;;;;5095772;28;20665;-74
2023/09/10 10:51:17;;;;;;;20.25;8.98;;;26.20;99.90;;;;;;5095561;28;20222;-74
2023/09/10 10:54:07;;;;;;;15.27;9.05;;;26.30;99.90;;;;;;5095254;28;20229;-74
2023/09/10 10:56:57;;;;;;;10.55;8.68;;;26.30;99.90;;;;;;5080200;28;20278;-75
2023/09/10 10:59:46;;;;;;;15.43;8.77;;;26.40;99.90;;;;;;5100103;28;20218;-73
2023/09/10 11:02:35;;;;;;;12.73;8.50;;;26.40;99.90;;;;;;5094498;27;20254;-73
2023/09/10 11:05:26;;;;;;;16.48;8.85;;;26.50;99.90;;;;;;5081490;28;20230;-73
2023/09/10 11:08:29;;;;;;;15.25;8.68;;;26.50;99.90;;;;;;5098969;28;20231;-72
2023/09/10 11:11:46;;;;;;;16.23;8.60;;;26.40;99.90;;;;;;5095611;28;20210;-72
2023/09/10 11:15:13;;;;;;;11.35;8.38;;;26.50;99.90;;;;;;5087497;28;20779;-73
2023/09/10 11:18:41;;;;;;;10.55;8.27;;;26.50;99.90;;;;;;5094683;28;20227;-73
2023/09/10 11:22:06;;;;;;;15.70;8.65;;;26.60;99.90;;;;;;5094814;28;20237;-74
2023/09/10 11:25:01;;;;;;;15.82;7.68;;;26.70;99.90;;;;;;5077678;28;20227;-73
2023/09/10 11:27:53;;;;;;;13.68;8.10;;;26.70;99.90;;;;;;5096444;28;20246;-73
2023/09/10 11:30:42;;;;;;;19.55;8.27;;;26.80;99.90;;;;;;5071799;28;20225;-74
2023/09/10 11:33:33;;;;;;;15.10;8.20;;;26.80;99.90;;;;;;5098226;28;20222;-74
2023/09/10 11:36:24;;;;;;;13.43;8.45;;;26.70;99.90;;;;;;5092407;28;20223;-73
2023/09/10 11:39:15;;;;;;;18.00;8.52;;;26.80;99.90;;;;;;5081433;28;20219;-72
2023/09/10 11:42:07;;;;;;;15.38;8.27;;;26.70;99.90;;;;;;5095614;28;20219;-73
2023/09/10 11:44:56;;;;;;;10.48;8.60;;;26.70;99.90;;;;;;5072222;28;20229;-75
2023/09/10 11:47:47;;;;;;;15.18;7.85;;;26.70;99.90;;;;;;5091035;28;20319;-74
2023/09/10 11:50:37;;;;;;;14.93;7.78;;;26.70;99.90;;;;;;5081750;28;20223;-74
2023/09/10 11:53:26;;;;;;;14.13;9.02;;;26.70;99.90;;;;;;5094205;28;20215;-74
2023/09/10 11:56:17;;;;;;;11.35;7.90;;;26.80;99.90;;;;;;5096492;28;20225;-74
2023/09/10 11:59:08;;;;;;;12.75;7.88;;;26.80;99.90;;;;;;5099607;28;20235;-74
2023/09/10 12:01:57;;;;;;;14.95;8.40;;;26.80;99.90;;;;;;5070718;28;20235;-76
2023/09/10 12:04:46;;;;;;;11.05;8.00;;;26.80;99.90;;;;;;5097079;28;20284;-74
2023/09/10 12:07:35;;;;;;;16.08;9.07;;;26.80;99.90;;;;;;5100104;28;20385;-73
2023/09/10 12:10:25;;;;;;;14.80;8.57;;;26.70;99.90;;;;;;5092243;28;20215;-74
2023/09/10 12:13:16;;;;;;;8.90;7.60;;;26.70;99.90;;;;;;5073938;28;20723;-74
2023/09/10 12:16:06;;;;;;;13.65;8.63;;;26.80;99.90;;;;;;5067217;28;20352;-72
2023/09/10 12:18:55;;;;;;;15.25;8.25;;;26.80;99.90;;;;;;5097985;28;20284;-73
2023/09/10 12:21:45;;;;;;;17.92;8.50;;;26.70;99.90;;;;;;5092072;28;20242;-73
2023/09/10 12:24:33;;;;;;;14.80;8.20;;;26.80;99.90;;;;;;5095481;28;20737;-73
2023/09/10 12:27:22;;;;;;;15.73;8.45;;;26.80;99.90;;;;;;5100476;28;20242;-71
2023/09/10 12:30:14;;;;;;;11.88;7.65;;;26.70;99.90;;;;;;5100686;28;20553;-73
2023/09/10 12:33:05;;;;;;;18.08;8.70;;;26.70;99.90;;;;;;5082049;28;20223;-75
2023/09/10 12:35:54;;;;;;;13.50;8.15;;;26.70;99.90;;;;;;5099028;28;20739;-73
2023/09/10 12:38:43;;;;;;;14.55;8.50;;;26.70;99.90;;;;;;5095197;28;20400;-75
2023/09/10 12:41:32;;;;;;;15.05;7.78;;;26.70;99.90;;;;;;5090438;28;20361;-75
2023/09/10 12:44:21;;;;;;;14.50;7.85;;;26.80;99.90;;;;;;5089000;28;20264;-73
2023/09/10 12:47:12;;;;;;;14.10;8.52;;;26.70;99.90;;;;;;5096366;28;20233;-74
2023/09/10 12:50:02;;;;;;;18.60;8.90;;;26.80;99.90;;;;;;5079006;28;20239;-74
2023/09/10 12:52:53;;;;;;;9.98;7.95;;;26.70;99.90;;;;;;5093122;28;20218;-73
2023/09/10 12:55:43;;;;;;;17.38;8.43;;;26.70;99.90;;;;;;5094149;28;20249;-74
2023/09/10 12:58:32;;;;;;;16.98;7.90;;;26.70;99.90;;;;;;5075308;28;20215;-74
2023/09/10 13:01:25;;;;;;;13.55;8.13;;;26.70;99.90;;;;;;5099358;28;20592;-74
2023/09/10 13:04:16;;;;;;;13.98;8.45;;;26.60;99.90;;;;;;5073760;28;20290;-73
2023/09/10 13:07:06;;;;;;;18.58;8.32;;;26.60;99.90;;;;;;5092548;28;20228;-75
2023/09/10 13:09:55;;;;;;;16.00;7.97;;;26.60;99.90;;;;;;5093682;28;20249;-74
2023/09/10 13:12:45;;;;;;;18.95;8.90;;;26.50;99.90;;;;;;5093328;28;20262;-74
2023/09/10 13:15:34;;;;;;;14.48;7.85;;;26.50;99.90;;;;;;5089603;28;20677;-73
2023/09/10 13:18:23;;;;;;;13.18;8.85;;;26.50;99.90;;;;;;5078843;28;20234;-74
2023/09/10 13:21:13;;;;;;;16.35;8.52;;;26.50;99.90;;;;;;5068338;28;20235;-74
2023/09/10 13:24:02;;;;;;;14.98;8.30;;;26.50;99.90;;;;;;5086217;28;20842;-74
2023/09/10 13:26:51;;;;;;;15.68;8.50;;;26.40;99.90;;;;;;5072373;28;20230;-74
2023/09/10 13:29:40;;;;;;;13.05;8.30;;;26.40;99.90;;;;;;5098051;28;20227;-74
2023/09/10 13:32:29;;;;;;;15.35;8.68;;;26.30;99.90;;;;;;5085453;28;20614;-74
2023/09/10 13:35:19;;;;;;;15.60;8.35;;;26.40;99.90;;;;;;5091424;28;20226;-73
2023/09/10 13:38:09;;;;;;;17.15;8.82;;;26.40;99.90;;;;;;5099816;28;20230;-74
2023/09/10 13:40:58;;;;;;;19.73;9.25;;;26.40;99.90;;;;;;5099874;28;20693;-74
2023/09/10 13:43:47;;;;;;;14.13;7.78;;;26.40;99.90;;;;;;5095697;28;20241;-73
2023/09/10 13:46:36;;;;;;;17.98;8.30;;;26.40;99.90;;;;;;5092595;28;20215;-73
2023/09/10 13:49:26;;;;;;;18.15;8.55;;;26.30;99.90;;;;;;5089307;28;20760;-73
2023/09/10 13:52:15;;;;;;;14.30;8.50;;;26.30;99.90;;;;;;5095891;28;20244;-72
2023/09/10 13:55:06;;;;;;;19.05;8.88;;;26.30;99.90;;;;;;5099431;28;20325;-74
2023/09/10 13:57:56;;;;;;;16.67;8.30;;;26.40;99.90;;;;;;5097618;28;20355;-74
2023/09/10 14:00:45;;;;;;;22.67;8.43;;;26.40;99.90;;;;;;5100306;28;20237;-65
2023/09/10 14:03:34;;;;;;;16.02;8.60;;;26.40;99.90;;;;;;5079888;28;20224;-73
2023/09/10 14:06:23;;;;;;;20.92;9.05;;;26.30;99.90;;;;;;5099501;28;20211;-69
2023/09/10 14:09:12;;;;;;;22.92;9.43;;;26.40;99.90;;;;;;5100513;28;20677;-72
2023/09/10 14:12:02;;;;;;;14.15;8.55;;;26.40;99.90;;;;;;5082987;28;20440;-72
2023/09/10 14:14:54;;;;;;;16.45;8.70;;;26.30;99.90;;;;;;5100380;27;20227;-72
2023/09/10 14:17:43;;;;;;;16.70;8.45;;;26.30;99.90;;;;;;5075619;28;20909;-70
2023/09/10 14:20:32;;;;;;;17.98;8.82;;;26.30;99.90;;;;;;5077325;28;20223;-72
2023/09/10 14:23:21;;;;;;;15.02;9.38;;;26.30;99.90;;;;;;5072230;28;20338;-71
2023/09/10 14:26:10;;;;;;;19.70;9.75;;;26.30;99.90;;;;;;5074977;28;20262;-70
2023/09/10 14:29:00;;;;;;;16.00;9.27;;;26.30;99.90;;;;;;5097561;28;20590;-72